createdAt,value
2019-02-04T00:00:20.463Z,3.84
2019-02-04T00:00:46.578Z,3.81
2019-02-04T00:01:12.699Z,3.88
2019-02-04T00:01:39.115Z,3.77
2019-02-04T00:02:05.258Z,3.8
2019-02-04T00:02:31.369Z,3.78
2019-02-04T00:02:57.768Z,3.78
2019-02-04T00:03:23.857Z,3.81
2019-02-04T00:03:50.377Z,3.78
2019-02-04T00:04:16.491Z,3.78
2019-02-04T00:04:42.594Z,3.69
2019-02-04T00:05:08.870Z,3.62
2019-02-04T00:05:34.968Z,3.6
2019-02-04T00:06:01.401Z,3.68
2019-02-04T00:06:27.640Z,3.68
2019-02-04T00:06:53.750Z,3.63
2019-02-04T00:07:20.931Z,3.78
2019-02-04T00:07:47.022Z,3.73
2019-02-04T00:08:13.139Z,3.77
2019-02-04T00:08:39.550Z,3.65
2019-02-04T00:09:05.666Z,3.66
2019-02-04T00:09:32.148Z,3.65
2019-02-04T00:09:58.258Z,3.69
2019-02-04T00:10:24.397Z,3.65
2019-02-04T00:10:50.873Z,3.74
2019-02-04T00:11:17.027Z,3.65
2019-02-04T00:11:43.393Z,3.65
2019-02-04T00:12:09.662Z,3.68
2019-02-04T00:12:35.761Z,3.65
2019-02-04T00:13:02.105Z,3.6
2019-02-04T00:13:28.323Z,3.58
2019-02-04T00:13:54.390Z,3.63
2019-02-04T00:14:20.687Z,3.56
2019-02-04T00:14:46.783Z,3.55
2019-02-04T00:15:13.068Z,3.63
2019-02-04T00:15:39.185Z,3.59
2019-02-04T00:16:05.350Z,3.55
2019-02-04T00:16:40.528Z,3.55
2019-02-04T00:16:58.870Z,3.69
2019-02-04T00:17:25.008Z,3.6
2019-02-04T00:17:51.311Z,3.66
2019-02-04T00:18:17.394Z,3.55
2019-02-04T00:18:43.741Z,3.51
2019-02-04T00:19:09.851Z,3.56
2019-02-04T00:19:35.957Z,3.5
2019-02-04T00:20:02.374Z,3.48
2019-02-04T00:20:28.539Z,3.53
2019-02-04T00:20:55.037Z,3.53
2019-02-04T00:21:21.212Z,3.55
2019-02-04T00:21:47.318Z,3.56
2019-02-04T00:22:13.663Z,3.55
2019-02-04T00:22:39.796Z,3.5
2019-02-04T00:23:05.959Z,3.53
2019-02-04T00:23:32.578Z,3.45
2019-02-04T00:23:58.703Z,3.48
2019-02-04T00:24:25.219Z,3.55
2019-02-04T00:24:51.363Z,3.56
2019-02-04T00:25:17.495Z,3.5
2019-02-04T00:25:44.140Z,3.48
2019-02-04T00:26:10.263Z,3.56
2019-02-04T00:26:36.390Z,3.55
2019-02-04T00:27:03.719Z,3.48
2019-02-04T00:27:29.826Z,3.53
2019-02-04T00:27:56.488Z,3.53
2019-02-04T00:28:22.595Z,3.56
2019-02-04T00:28:48.724Z,3.51
2019-02-04T00:29:15.122Z,3.55
2019-02-04T00:29:41.257Z,3.53
2019-02-04T00:30:07.594Z,3.5
2019-02-04T00:30:33.722Z,3.48
2019-02-04T00:30:59.862Z,3.44
2019-02-04T00:31:26.279Z,3.53
2019-02-04T00:31:52.378Z,3.5
2019-02-04T00:32:18.487Z,3.41
2019-02-04T00:32:44.762Z,3.5
2019-02-04T00:33:10.871Z,3.41
2019-02-04T00:33:37.239Z,3.37
2019-02-04T00:34:03.370Z,3.41
2019-02-04T00:34:29.474Z,3.34
2019-02-04T00:34:55.907Z,3.37
2019-02-04T00:35:22.007Z,3.29
2019-02-04T00:35:48.386Z,3.28
2019-02-04T00:36:14.493Z,3.34
2019-02-04T00:36:40.596Z,3.41
2019-02-04T00:37:06.939Z,3.34
2019-02-04T00:37:33.077Z,3.4
2019-02-04T00:37:59.182Z,3.29
2019-02-04T00:38:25.679Z,3.37
2019-02-04T00:38:51.792Z,3.36
2019-02-04T00:39:18.783Z,3.31
2019-02-04T00:39:44.890Z,3.26
2019-02-04T00:40:11.036Z,3.22
2019-02-04T00:40:37.702Z,3.28
2019-02-04T00:41:03.810Z,3.23
2019-02-04T00:41:29.917Z,3.23
2019-02-04T00:41:56.150Z,3.28
2019-02-04T00:42:22.251Z,3.28
2019-02-04T00:42:48.589Z,3.22
2019-02-04T00:43:14.756Z,3.37
2019-02-04T00:43:40.860Z,3.34
2019-02-04T00:44:07.153Z,3.23
2019-02-04T00:44:33.259Z,3.31
2019-02-04T00:44:59.620Z,3.25
2019-02-04T00:45:25.721Z,3.36
2019-02-04T00:45:51.829Z,3.36
2019-02-04T00:46:18.246Z,3.31
2019-02-04T00:46:51.920Z,3.26
2019-02-04T00:47:11.472Z,3.29
2019-02-04T00:47:37.812Z,3.31
2019-02-04T00:48:03.916Z,3.32
2019-02-04T00:48:30.258Z,3.37
2019-02-04T00:48:56.444Z,3.36
2019-02-04T00:49:22.498Z,3.37
2019-02-04T00:49:48.963Z,3.41
2019-02-04T00:50:15.063Z,3.42
2019-02-04T00:50:41.289Z,3.31
2019-02-04T00:51:07.518Z,3.23
2019-02-04T00:51:33.620Z,3.23
2019-02-04T00:51:59.984Z,3.34
2019-02-04T00:52:26.092Z,3.25
2019-02-04T00:52:52.190Z,3.41
2019-02-04T00:53:18.534Z,3.32
2019-02-04T00:53:44.671Z,3.31
2019-02-04T00:54:11.034Z,3.34
2019-02-04T00:54:37.140Z,3.36
2019-02-04T00:55:03.274Z,3.34
2019-02-04T00:55:29.673Z,3.36
2019-02-04T00:55:55.774Z,3.28
2019-02-04T00:56:21.878Z,3.26
2019-02-04T00:56:48.166Z,3.31
2019-02-04T00:57:14.371Z,3.31
2019-02-04T00:57:40.691Z,3.26
2019-02-04T00:58:06.867Z,3.25
2019-02-04T00:58:32.969Z,3.21
2019-02-04T00:58:59.453Z,3.23
2019-02-04T00:59:25.560Z,3.25
2019-02-04T00:59:52.005Z,3.21
2019-02-04T01:00:18.307Z,3.22
2019-02-04T01:00:44.416Z,3.19
2019-02-04T01:01:11.028Z,3.31
2019-02-04T01:01:37.128Z,3.19
2019-02-04T01:02:03.268Z,3.22
2019-02-04T01:02:29.805Z,3.25
2019-02-04T01:02:55.910Z,3.26
2019-02-04T01:03:22.036Z,3.26
2019-02-04T01:03:48.143Z,3.29
2019-02-04T01:04:14.251Z,3.28
2019-02-04T01:04:40.838Z,3.28
2019-02-04T01:05:06.941Z,3.28
2019-02-04T01:05:33.049Z,3.29
2019-02-04T01:05:59.446Z,3.25
2019-02-04T01:06:25.548Z,3.28
2019-02-04T01:06:51.895Z,3.29
2019-02-04T01:07:18.040Z,3.25
2019-02-04T01:07:44.194Z,3.22
2019-02-04T01:08:10.641Z,3.32
2019-02-04T01:08:36.745Z,3.25
2019-02-04T01:09:03.101Z,3.31
2019-02-04T01:09:30.226Z,3.26
2019-02-04T01:09:56.365Z,3.23
2019-02-04T01:10:22.676Z,3.26
2019-02-04T01:10:48.842Z,3.29
2019-02-04T01:11:14.949Z,3.41
2019-02-04T01:11:41.344Z,3.26
2019-02-04T01:12:07.460Z,3.32
2019-02-04T01:12:33.820Z,3.37
2019-02-04T01:12:59.947Z,3.23
2019-02-04T01:13:26.049Z,3.4
2019-02-04T01:13:52.603Z,3.29
2019-02-04T01:14:18.705Z,3.25
2019-02-04T01:14:45.031Z,3.26
2019-02-04T01:15:11.219Z,3.26
2019-02-04T01:15:37.341Z,3.25
2019-02-04T01:16:03.630Z,3.25
2019-02-04T01:16:29.737Z,3.23
2019-02-04T01:17:03.144Z,3.22
2019-02-04T01:17:22.982Z,3.31
2019-02-04T01:17:49.091Z,3.25
2019-02-04T01:18:15.249Z,3.26
2019-02-04T01:18:41.355Z,3.23
2019-02-04T01:19:07.454Z,3.25
2019-02-04T01:19:33.754Z,3.23
2019-02-04T01:19:59.857Z,3.29
2019-02-04T01:20:25.958Z,3.29
2019-02-04T01:20:52.367Z,3.29
2019-02-04T01:21:18.473Z,3.25
2019-02-04T01:21:44.757Z,3.31
2019-02-04T01:22:10.868Z,3.29
2019-02-04T01:22:37.026Z,3.26
2019-02-04T01:23:03.282Z,3.26
2019-02-04T01:23:29.388Z,3.29
2019-02-04T01:23:55.507Z,3.22
2019-02-04T01:24:21.608Z,3.25
2019-02-04T01:24:48.263Z,3.25
2019-02-04T01:25:14.542Z,3.22
2019-02-04T01:25:40.651Z,3.22
2019-02-04T01:26:06.746Z,3.22
2019-02-04T01:26:33.154Z,3.21
2019-02-04T01:26:59.257Z,3.19
2019-02-04T01:27:25.646Z,3.22
2019-02-04T01:27:51.746Z,3.22
2019-02-04T01:28:17.878Z,3.18
2019-02-04T01:28:44.276Z,3.16
2019-02-04T01:29:10.412Z,3.18
2019-02-04T01:29:36.733Z,3.19
2019-02-04T01:30:02.977Z,3.14
2019-02-04T01:30:29.081Z,3.1
2019-02-04T01:30:55.623Z,3.13
2019-02-04T01:31:21.731Z,3.1
2019-02-04T01:31:47.832Z,3.16
2019-02-04T01:32:14.378Z,3.1
2019-02-04T01:32:40.487Z,3.14
2019-02-04T01:33:07.213Z,3.07
2019-02-04T01:33:33.319Z,3.11
2019-02-04T01:33:59.423Z,3.07
2019-02-04T01:34:25.699Z,3.08
2019-02-04T01:34:52.789Z,3.03
2019-02-04T01:35:19.296Z,3
2019-02-04T01:35:45.720Z,3.03
2019-02-04T01:36:11.821Z,3.01
2019-02-04T01:36:38.430Z,3
2019-02-04T01:37:04.587Z,3.01
2019-02-04T01:37:30.689Z,2.92
2019-02-04T01:37:57.213Z,3.01
2019-02-04T01:38:23.305Z,2.98
2019-02-04T01:38:49.580Z,3.01
2019-02-04T01:39:15.676Z,3.03
2019-02-04T01:39:41.788Z,3.05
2019-02-04T01:40:08.139Z,3.03
2019-02-04T01:40:34.265Z,3.05
2019-02-04T01:41:00.365Z,3.11
2019-02-04T01:41:26.774Z,3.07
2019-02-04T01:41:52.907Z,3.05
2019-02-04T01:42:19.239Z,3.11
2019-02-04T01:42:45.343Z,3.04
2019-02-04T01:43:11.445Z,3.05
2019-02-04T01:43:37.782Z,3.08
2019-02-04T01:44:03.885Z,3.04
2019-02-04T01:44:30.287Z,3.05
2019-02-04T01:44:56.382Z,3.01
2019-02-04T01:45:22.512Z,3.1
2019-02-04T01:45:48.860Z,3.11
2019-02-04T01:46:14.959Z,3.05
2019-02-04T01:46:41.065Z,3.05
2019-02-04T01:47:14.290Z,3.08
2019-02-04T01:47:34.716Z,3.04
2019-02-04T01:48:01.140Z,3.03
2019-02-04T01:48:27.236Z,3.04
2019-02-04T01:48:53.348Z,3.04
2019-02-04T01:49:19.810Z,3.05
2019-02-04T01:49:45.921Z,3.01
2019-02-04T01:50:12.328Z,3
2019-02-04T01:50:38.510Z,2.97
2019-02-04T01:51:04.608Z,3.01
2019-02-04T01:51:30.889Z,3.01
2019-02-04T01:51:57.015Z,2.98
2019-02-04T01:52:23.124Z,3.03
2019-02-04T01:52:49.385Z,2.97
2019-02-04T01:53:15.487Z,2.95
2019-02-04T01:53:41.687Z,2.87
2019-02-04T01:54:07.792Z,2.95
2019-02-04T01:54:33.896Z,2.86
2019-02-04T01:55:00.260Z,2.83
2019-02-04T01:55:26.380Z,2.93
2019-02-04T01:55:52.483Z,2.97
2019-02-04T01:56:18.872Z,2.97
2019-02-04T01:56:45.011Z,2.93
2019-02-04T01:57:11.329Z,2.93
2019-02-04T01:57:37.435Z,2.82
2019-02-04T01:58:03.542Z,2.89
2019-02-04T01:58:29.930Z,2.86
2019-02-04T01:58:56.034Z,2.87
2019-02-04T01:59:22.463Z,2.86
2019-02-04T01:59:48.568Z,2.83
2019-02-04T02:00:14.668Z,2.87
2019-02-04T02:00:41.285Z,2.89
2019-02-04T02:01:07.442Z,2.87
2019-02-04T02:01:33.558Z,2.85
2019-02-04T02:01:59.942Z,2.86
2019-02-04T02:02:26.041Z,2.82
2019-02-04T02:02:52.763Z,2.87
2019-02-04T02:03:18.877Z,2.85
2019-02-04T02:03:44.978Z,2.87
2019-02-04T02:04:11.266Z,2.86
2019-02-04T02:04:37.370Z,2.89
2019-02-04T02:05:03.478Z,2.92
2019-02-04T02:05:29.704Z,2.85
2019-02-04T02:05:55.800Z,2.87
2019-02-04T02:06:22.093Z,2.87
2019-02-04T02:06:48.291Z,2.86
2019-02-04T02:07:14.455Z,2.83
2019-02-04T02:07:40.595Z,2.85
2019-02-04T02:08:06.744Z,2.83
2019-02-04T02:08:33.006Z,2.83
2019-02-04T02:08:59.106Z,2.85
2019-02-04T02:09:25.228Z,2.85
2019-02-04T02:09:51.713Z,2.86
2019-02-04T02:10:17.820Z,2.87
2019-02-04T02:10:43.915Z,2.9
2019-02-04T02:11:10.277Z,2.89
2019-02-04T02:11:36.384Z,2.82
2019-02-04T02:12:02.770Z,2.9
2019-02-04T02:12:28.875Z,2.87
2019-02-04T02:12:54.978Z,2.93
2019-02-04T02:13:21.403Z,2.85
2019-02-04T02:13:47.499Z,2.85
2019-02-04T02:14:13.855Z,2.87
2019-02-04T02:14:40.152Z,2.87
2019-02-04T02:15:06.285Z,2.87
2019-02-04T02:15:32.591Z,2.87
2019-02-04T02:15:58.730Z,2.87
2019-02-04T02:16:24.833Z,2.82
2019-02-04T02:16:51.297Z,2.9
2019-02-04T02:17:25.852Z,2.83
2019-02-04T02:17:45.063Z,2.75
2019-02-04T02:18:11.157Z,2.82
2019-02-04T02:18:37.302Z,2.82
2019-02-04T02:19:03.758Z,2.74
2019-02-04T02:19:29.859Z,2.83
2019-02-04T02:19:56.219Z,2.89
2019-02-04T02:20:22.536Z,2.8
2019-02-04T02:20:48.638Z,2.79
2019-02-04T02:21:14.855Z,2.85
2019-02-04T02:21:40.965Z,2.74
2019-02-04T02:22:07.062Z,2.71
2019-02-04T02:22:33.366Z,2.87
2019-02-04T02:22:59.460Z,2.77
2019-02-04T02:23:25.820Z,2.83
2019-02-04T02:23:51.922Z,2.75
2019-02-04T02:24:18.026Z,2.82
2019-02-04T02:24:44.429Z,2.77
2019-02-04T02:25:10.619Z,2.77
2019-02-04T02:25:36.726Z,2.71
2019-02-04T02:26:03.110Z,2.74
2019-02-04T02:26:29.212Z,2.72
2019-02-04T02:26:55.551Z,2.71
2019-02-04T02:27:21.652Z,2.72
2019-02-04T02:27:47.753Z,2.72
2019-02-04T02:28:15.489Z,2.71
2019-02-04T02:28:41.299Z,2.69
2019-02-04T02:29:07.677Z,2.69
2019-02-04T02:29:33.784Z,2.74
2019-02-04T02:29:59.891Z,2.71
2019-02-04T02:30:26.130Z,2.68
2019-02-04T02:30:52.315Z,2.77
2019-02-04T02:31:18.423Z,2.69
2019-02-04T02:31:44.603Z,2.69
2019-02-04T02:32:10.737Z,2.83
2019-02-04T02:32:37.444Z,2.72
2019-02-04T02:33:03.611Z,2.8
2019-02-04T02:33:29.715Z,2.75
2019-02-04T02:33:55.977Z,2.72
2019-02-04T02:34:22.079Z,2.74
2019-02-04T02:34:48.176Z,2.79
2019-02-04T02:35:14.578Z,2.72
2019-02-04T02:35:40.693Z,2.72
2019-02-04T02:36:06.996Z,2.77
2019-02-04T02:36:33.092Z,2.71
2019-02-04T02:36:59.234Z,2.72
2019-02-04T02:37:25.596Z,2.75
2019-02-04T02:37:51.703Z,2.79
2019-02-04T02:38:18.177Z,2.68
2019-02-04T02:38:44.273Z,2.72
2019-02-04T02:39:10.377Z,2.69
2019-02-04T02:39:36.920Z,2.77
2019-02-04T02:40:03.025Z,2.8
2019-02-04T02:40:29.128Z,2.69
2019-02-04T02:40:55.830Z,2.74
2019-02-04T02:41:21.931Z,2.75
2019-02-04T02:41:48.362Z,2.74
2019-02-04T02:42:14.465Z,2.79
2019-02-04T02:42:40.613Z,2.82
2019-02-04T02:43:06.962Z,2.77
2019-02-04T02:43:33.127Z,2.79
2019-02-04T02:43:59.251Z,2.8
2019-02-04T02:44:25.410Z,2.71
2019-02-04T02:44:51.571Z,2.69
2019-02-04T02:45:17.990Z,2.71
2019-02-04T02:45:44.148Z,2.67
2019-02-04T02:46:10.255Z,2.62
2019-02-04T02:46:36.608Z,2.69
2019-02-04T02:47:02.714Z,2.67
2019-02-04T02:47:38.054Z,2.65
2019-02-04T02:47:56.137Z,2.65
2019-02-04T02:48:22.253Z,2.67
2019-02-04T02:48:48.665Z,2.61
2019-02-04T02:49:14.805Z,2.69
2019-02-04T02:49:40.891Z,2.6
2019-02-04T02:50:07.224Z,2.65
2019-02-04T02:50:33.330Z,2.65
2019-02-04T02:50:59.797Z,2.64
2019-02-04T02:51:25.904Z,2.61
2019-02-04T02:51:52.003Z,2.62
2019-02-04T02:52:18.226Z,2.65
2019-02-04T02:52:44.365Z,2.68
2019-02-04T02:53:10.498Z,2.65
2019-02-04T02:53:36.854Z,2.65
2019-02-04T02:54:02.985Z,2.71
2019-02-04T02:54:29.318Z,2.64
2019-02-04T02:54:55.424Z,2.65
2019-02-04T02:55:21.555Z,2.64
2019-02-04T02:55:47.883Z,2.65
2019-02-04T02:56:14.011Z,2.65
2019-02-04T02:56:40.321Z,2.68
2019-02-04T02:57:06.460Z,2.75
2019-02-04T02:57:32.559Z,2.72
2019-02-04T02:57:58.881Z,2.68
2019-02-04T02:58:25.032Z,2.71
2019-02-04T02:58:51.141Z,2.72
2019-02-04T02:59:17.339Z,2.77
2019-02-04T02:59:43.438Z,2.72
2019-02-04T03:00:10.005Z,2.68
2019-02-04T03:00:36.110Z,2.68
2019-02-04T03:01:02.209Z,2.72
2019-02-04T03:01:28.541Z,2.74
2019-02-04T03:01:54.683Z,2.68
2019-02-04T03:02:20.870Z,2.74
2019-02-04T03:02:47.327Z,2.68
2019-02-04T03:03:13.420Z,2.64
2019-02-04T03:03:39.650Z,2.62
2019-02-04T03:04:05.747Z,2.62
2019-02-04T03:04:31.881Z,2.64
2019-02-04T03:04:58.334Z,2.64
2019-02-04T03:05:24.448Z,2.68
2019-02-04T03:05:50.794Z,2.71
2019-02-04T03:06:16.919Z,2.64
2019-02-04T03:06:43.062Z,2.62
2019-02-04T03:07:09.487Z,2.6
2019-02-04T03:07:35.588Z,2.64
2019-02-04T03:08:01.692Z,2.65
2019-02-04T03:08:27.852Z,2.62
2019-02-04T03:08:53.960Z,2.71
2019-02-04T03:09:20.254Z,2.61
2019-02-04T03:09:46.351Z,2.72
2019-02-04T03:10:12.462Z,2.68
2019-02-04T03:10:38.858Z,2.69
2019-02-04T03:11:04.957Z,2.65
2019-02-04T03:11:31.163Z,2.64
2019-02-04T03:11:57.269Z,2.64
2019-02-04T03:12:23.371Z,2.72
2019-02-04T03:12:49.954Z,2.74
2019-02-04T03:13:16.059Z,2.71
2019-02-04T03:13:42.160Z,2.67
2019-02-04T03:14:08.528Z,2.69
2019-02-04T03:14:34.616Z,2.69
2019-02-04T03:15:00.894Z,2.72
2019-02-04T03:15:27.028Z,2.64
2019-02-04T03:15:53.132Z,2.64
2019-02-04T03:16:19.611Z,2.69
2019-02-04T03:16:45.718Z,2.67
2019-02-04T03:17:11.845Z,2.71
2019-02-04T03:17:50.456Z,2.65
2019-02-04T03:18:07.189Z,2.65
2019-02-04T03:18:33.429Z,2.72
2019-02-04T03:18:59.551Z,2.72
2019-02-04T03:19:25.651Z,2.75
2019-02-04T03:19:51.991Z,2.68
2019-02-04T03:20:18.125Z,2.61
2019-02-04T03:20:44.384Z,2.68
2019-02-04T03:21:10.490Z,2.69
2019-02-04T03:21:36.598Z,2.64
2019-02-04T03:22:02.951Z,2.65
2019-02-04T03:22:29.061Z,2.62
2019-02-04T03:22:55.230Z,2.62
2019-02-04T03:23:21.387Z,2.65
2019-02-04T03:23:47.486Z,2.65
2019-02-04T03:24:14.609Z,2.69
2019-02-04T03:24:40.716Z,2.64
2019-02-04T03:25:06.869Z,2.69
2019-02-04T03:25:33.248Z,2.68
2019-02-04T03:25:59.355Z,2.71
2019-02-04T03:26:25.690Z,2.64
2019-02-04T03:26:51.819Z,2.61
2019-02-04T03:27:17.918Z,2.71
2019-02-04T03:27:44.492Z,2.6
2019-02-04T03:28:10.590Z,2.69
2019-02-04T03:28:36.689Z,2.64
2019-02-04T03:29:03.173Z,2.62
2019-02-04T03:29:29.277Z,2.65
2019-02-04T03:29:55.806Z,2.68
2019-02-04T03:30:21.951Z,2.69
2019-02-04T03:30:48.168Z,2.67
2019-02-04T03:31:14.547Z,2.71
2019-02-04T03:31:45.663Z,2.64
2019-02-04T03:32:07.837Z,2.69
2019-02-04T03:32:34.174Z,2.67
2019-02-04T03:33:00.339Z,2.67
2019-02-04T03:33:26.448Z,2.72
2019-02-04T03:33:52.554Z,2.65
2019-02-04T03:34:18.690Z,2.62
2019-02-04T03:34:44.841Z,2.65
2019-02-04T03:35:11.000Z,2.62
2019-02-04T03:35:37.125Z,2.62
2019-02-04T03:36:03.235Z,2.64
2019-02-04T03:36:29.328Z,2.67
2019-02-04T03:36:55.644Z,2.69
2019-02-04T03:37:21.774Z,2.64
2019-02-04T03:37:47.875Z,2.65
2019-02-04T03:38:14.151Z,2.72
2019-02-04T03:38:40.286Z,2.69
2019-02-04T03:39:06.577Z,2.71
2019-02-04T03:39:32.712Z,2.68
2019-02-04T03:39:58.808Z,2.74
2019-02-04T03:40:25.421Z,2.74
2019-02-04T03:40:51.536Z,2.64
2019-02-04T03:41:17.880Z,2.68
2019-02-04T03:41:44.083Z,2.69
2019-02-04T03:42:10.188Z,2.69
2019-02-04T03:42:36.832Z,2.69
2019-02-04T03:43:02.931Z,2.75
2019-02-04T03:43:29.069Z,2.72
2019-02-04T03:43:57.244Z,2.67
2019-02-04T03:44:21.514Z,2.69
2019-02-04T03:44:47.794Z,2.75
2019-02-04T03:45:13.899Z,2.62
2019-02-04T03:45:40.011Z,2.57
2019-02-04T03:46:06.138Z,2.69
2019-02-04T03:46:32.272Z,2.65
2019-02-04T03:46:58.403Z,2.68
2019-02-04T03:47:24.537Z,2.68
2019-02-04T03:48:03.685Z,2.71
2019-02-04T03:48:20.048Z,2.68
2019-02-04T03:48:46.147Z,2.68
2019-02-04T03:49:12.257Z,2.68
2019-02-04T03:49:38.608Z,2.65
2019-02-04T03:50:04.719Z,2.68
2019-02-04T03:50:31.027Z,2.65
2019-02-04T03:50:57.213Z,2.68
2019-02-04T03:51:23.314Z,2.6
2019-02-04T03:51:49.627Z,2.69
2019-02-04T03:52:15.736Z,2.64
2019-02-04T03:52:41.840Z,2.61
2019-02-04T03:53:08.083Z,2.62
2019-02-04T03:53:34.192Z,2.61
2019-02-04T03:54:00.406Z,2.65
2019-02-04T03:54:26.520Z,2.71
2019-02-04T03:54:52.647Z,2.68
2019-02-04T03:55:19.007Z,2.62
2019-02-04T03:55:45.155Z,2.69
2019-02-04T03:56:11.496Z,2.62
2019-02-04T03:56:37.590Z,2.72
2019-02-04T03:57:03.696Z,2.65
2019-02-04T03:57:30.019Z,2.65
2019-02-04T03:57:56.127Z,2.67
2019-02-04T03:58:22.248Z,2.64
2019-02-04T03:58:48.636Z,2.72
2019-02-04T03:59:14.736Z,2.65
2019-02-04T03:59:41.134Z,2.68
2019-02-04T04:00:07.585Z,2.65
2019-02-04T04:00:33.691Z,2.65
2019-02-04T04:01:00.098Z,2.54
2019-02-04T04:01:26.200Z,2.57
2019-02-04T04:01:52.465Z,2.53
2019-02-04T04:02:18.589Z,2.54
2019-02-04T04:02:44.696Z,2.56
2019-02-04T04:03:11.269Z,2.57
2019-02-04T04:03:37.379Z,2.53
2019-02-04T04:04:03.485Z,2.6
2019-02-04T04:04:30.001Z,2.57
2019-02-04T04:04:56.095Z,2.6
2019-02-04T04:05:22.555Z,2.53
2019-02-04T04:05:48.653Z,2.51
2019-02-04T04:06:14.763Z,2.53
2019-02-04T04:06:41.057Z,2.49
2019-02-04T04:07:07.160Z,2.43
2019-02-04T04:07:33.256Z,2.51
2019-02-04T04:07:59.593Z,2.49
2019-02-04T04:08:25.695Z,2.43
2019-02-04T04:08:51.822Z,2.47
2019-02-04T04:09:17.918Z,2.43
2019-02-04T04:09:44.052Z,2.47
2019-02-04T04:10:10.401Z,2.44
2019-02-04T04:10:36.548Z,2.54
2019-02-04T04:11:02.864Z,2.56
2019-02-04T04:11:28.971Z,2.42
2019-02-04T04:11:55.068Z,2.36
2019-02-04T04:12:21.426Z,2.44
2019-02-04T04:12:47.529Z,2.42
2019-02-04T04:13:13.639Z,2.51
2019-02-04T04:13:39.758Z,2.49
2019-02-04T04:14:05.883Z,2.49
2019-02-04T04:14:32.465Z,2.44
2019-02-04T04:14:58.576Z,2.43
2019-02-04T04:15:24.731Z,2.43
2019-02-04T04:15:51.240Z,2.46
2019-02-04T04:16:17.346Z,2.38
2019-02-04T04:16:43.817Z,2.47
2019-02-04T04:17:10.130Z,2.5
2019-02-04T04:17:36.227Z,2.54
2019-02-04T04:18:02.593Z,2.51
2019-02-04T04:18:30.683Z,2.57
2019-02-04T04:18:57.776Z,2.46
2019-02-04T04:19:24.130Z,2.53
2019-02-04T04:19:50.236Z,2.47
2019-02-04T04:20:16.673Z,2.54
2019-02-04T04:20:42.776Z,2.51
2019-02-04T04:21:08.879Z,2.54
2019-02-04T04:21:35.478Z,2.57
2019-02-04T04:22:01.578Z,2.57
2019-02-04T04:22:27.939Z,2.61
2019-02-04T04:22:54.235Z,2.57
2019-02-04T04:23:20.338Z,2.51
2019-02-04T04:23:46.629Z,2.57
2019-02-04T04:24:12.726Z,2.53
2019-02-04T04:24:38.836Z,2.56
2019-02-04T04:25:04.955Z,2.6
2019-02-04T04:25:31.063Z,2.53
2019-02-04T04:25:57.507Z,2.57
2019-02-04T04:26:23.657Z,2.56
2019-02-04T04:26:49.760Z,2.61
2019-02-04T04:27:16.198Z,2.56
2019-02-04T04:27:42.304Z,2.57
2019-02-04T04:28:08.409Z,2.53
2019-02-04T04:28:34.535Z,2.6
2019-02-04T04:29:00.662Z,2.6
2019-02-04T04:29:27.248Z,2.56
2019-02-04T04:29:53.350Z,2.53
2019-02-04T04:30:19.445Z,2.51
2019-02-04T04:30:46.036Z,2.56
2019-02-04T04:31:12.147Z,2.44
2019-02-04T04:31:38.476Z,2.5
2019-02-04T04:32:04.703Z,2.5
2019-02-04T04:32:30.810Z,2.56
2019-02-04T04:32:57.383Z,2.57
2019-02-04T04:33:23.492Z,2.53
2019-02-04T04:33:49.651Z,2.56
2019-02-04T04:34:16.000Z,2.56
2019-02-04T04:34:42.101Z,2.49
2019-02-04T04:35:08.232Z,2.61
2019-02-04T04:35:34.368Z,2.56
2019-02-04T04:36:00.470Z,2.57
2019-02-04T04:36:26.844Z,2.6
2019-02-04T04:36:52.951Z,2.53
2019-02-04T04:37:19.088Z,2.57
2019-02-04T04:37:45.511Z,2.51
2019-02-04T04:38:11.673Z,2.51
2019-02-04T04:38:38.059Z,2.57
2019-02-04T04:39:04.196Z,2.54
2019-02-04T04:39:30.288Z,2.54
2019-02-04T04:39:56.653Z,2.65
2019-02-04T04:40:22.753Z,2.5
2019-02-04T04:40:49.028Z,2.64
2019-02-04T04:41:15.181Z,2.62
2019-02-04T04:41:41.288Z,2.54
2019-02-04T04:42:07.891Z,2.68
2019-02-04T04:42:34.028Z,2.69
2019-02-04T04:43:00.122Z,2.68
2019-02-04T04:43:26.408Z,2.69
2019-02-04T04:43:52.513Z,2.64
2019-02-04T04:44:18.856Z,2.57
2019-02-04T04:44:44.986Z,2.67
2019-02-04T04:45:11.118Z,2.68
2019-02-04T04:45:37.476Z,2.54
2019-02-04T04:46:03.584Z,2.56
2019-02-04T04:46:29.681Z,2.51
2019-02-04T04:46:55.810Z,2.54
2019-02-04T04:47:21.910Z,2.62
2019-02-04T04:47:48.262Z,2.56
2019-02-04T04:48:14.392Z,2.54
2019-02-04T04:48:42.476Z,2.61
2019-02-04T04:49:09.726Z,2.51
2019-02-04T04:49:35.831Z,2.51
2019-02-04T04:50:02.493Z,2.54
2019-02-04T04:50:28.629Z,2.54
2019-02-04T04:50:54.731Z,2.53
2019-02-04T04:51:21.075Z,2.65
2019-02-04T04:51:47.175Z,2.64
2019-02-04T04:52:13.286Z,2.62
2019-02-04T04:52:39.627Z,2.64
2019-02-04T04:53:05.727Z,2.57
2019-02-04T04:53:32.072Z,2.64
2019-02-04T04:53:58.205Z,2.51
2019-02-04T04:54:24.305Z,2.51
2019-02-04T04:54:50.625Z,2.67
2019-02-04T04:55:16.732Z,2.67
2019-02-04T04:55:43.183Z,2.54
2019-02-04T04:56:09.287Z,2.57
2019-02-04T04:56:35.410Z,2.57
2019-02-04T04:57:01.955Z,2.62
2019-02-04T04:57:28.080Z,2.51
2019-02-04T04:57:54.190Z,2.54
2019-02-04T04:58:20.695Z,2.51
2019-02-04T04:58:46.799Z,2.54
2019-02-04T04:59:13.274Z,2.54
2019-02-04T04:59:39.375Z,2.68
2019-02-04T05:00:05.663Z,2.67
2019-02-04T05:00:32.210Z,2.67
2019-02-04T05:00:58.313Z,2.69
2019-02-04T05:01:24.470Z,2.62
2019-02-04T05:01:50.636Z,2.57
2019-02-04T05:02:16.744Z,2.5
2019-02-04T05:02:43.104Z,2.68
2019-02-04T05:03:09.223Z,2.65
2019-02-04T05:03:35.323Z,2.67
2019-02-04T05:04:01.707Z,2.64
2019-02-04T05:04:27.811Z,2.65
2019-02-04T05:04:53.967Z,2.64
2019-02-04T05:05:20.100Z,2.69
2019-02-04T05:05:46.201Z,2.64
2019-02-04T05:06:12.722Z,2.6
2019-02-04T05:06:38.832Z,2.51
2019-02-04T05:07:05.924Z,2.53
2019-02-04T05:07:32.309Z,2.53
2019-02-04T05:07:58.419Z,2.57
2019-02-04T05:08:24.878Z,2.57
2019-02-04T05:08:51.013Z,2.57
2019-02-04T05:09:17.118Z,2.65
2019-02-04T05:09:43.679Z,2.51
2019-02-04T05:10:09.790Z,2.57
2019-02-04T05:10:35.927Z,2.68
2019-02-04T05:11:02.242Z,2.54
2019-02-04T05:11:28.345Z,2.65
2019-02-04T05:11:54.742Z,2.65
2019-02-04T05:12:20.845Z,2.68
2019-02-04T05:12:46.949Z,2.62
2019-02-04T05:13:13.339Z,2.64
2019-02-04T05:13:39.531Z,2.64
2019-02-04T05:14:05.933Z,2.67
2019-02-04T05:14:32.030Z,2.65
2019-02-04T05:14:58.129Z,2.69
2019-02-04T05:15:24.534Z,2.67
2019-02-04T05:15:50.639Z,2.69
2019-02-04T05:16:16.750Z,2.65
2019-02-04T05:16:43.137Z,2.65
2019-02-04T05:17:09.245Z,2.68
2019-02-04T05:17:35.551Z,2.71
2019-02-04T05:18:02.650Z,2.67
2019-02-04T05:18:37.652Z,2.67
2019-02-04T05:18:54.912Z,2.65
2019-02-04T05:19:21.013Z,2.61
2019-02-04T05:19:47.423Z,2.67
2019-02-04T05:20:13.523Z,2.62
2019-02-04T05:20:39.629Z,2.71
2019-02-04T05:21:06.722Z,2.65
2019-02-04T05:21:32.827Z,2.67
2019-02-04T05:21:58.984Z,2.69
2019-02-04T05:22:25.360Z,2.62
2019-02-04T05:22:51.463Z,2.74
2019-02-04T05:23:17.851Z,2.57
2019-02-04T05:23:43.959Z,2.64
2019-02-04T05:24:10.065Z,2.71
2019-02-04T05:24:36.535Z,2.68
2019-02-04T05:25:02.644Z,2.61
2019-02-04T05:25:29.082Z,2.62
2019-02-04T05:25:55.183Z,2.67
2019-02-04T05:26:21.318Z,2.65
2019-02-04T05:26:48.417Z,2.62
2019-02-04T05:27:14.523Z,2.69
2019-02-04T05:27:40.624Z,2.6
2019-02-04T05:28:07.002Z,2.69
2019-02-04T05:28:33.100Z,2.65
2019-02-04T05:28:59.368Z,2.77
2019-02-04T05:29:25.506Z,2.68
2019-02-04T05:29:51.607Z,2.62
2019-02-04T05:30:18.262Z,2.62
2019-02-04T05:30:44.394Z,2.61
2019-02-04T05:31:10.787Z,2.72
2019-02-04T05:31:36.968Z,2.68
2019-02-04T05:32:03.071Z,2.61
2019-02-04T05:32:29.592Z,2.62
2019-02-04T05:32:55.716Z,2.68
2019-02-04T05:33:21.819Z,2.68
2019-02-04T05:33:48.082Z,2.74
2019-02-04T05:34:14.194Z,2.62
2019-02-04T05:34:40.510Z,2.71
2019-02-04T05:35:07.611Z,2.62
2019-02-04T05:35:33.744Z,2.64
2019-02-04T05:36:00.137Z,2.69
2019-02-04T05:36:26.236Z,2.68
2019-02-04T05:36:52.345Z,2.64
2019-02-04T05:37:18.709Z,2.67
2019-02-04T05:37:44.810Z,2.68
2019-02-04T05:38:11.237Z,2.68
2019-02-04T05:38:37.343Z,2.68
2019-02-04T05:39:03.451Z,2.65
2019-02-04T05:39:29.818Z,2.68
2019-02-04T05:39:55.916Z,2.65
2019-02-04T05:40:22.350Z,2.68
2019-02-04T05:40:48.454Z,2.65
2019-02-04T05:41:14.558Z,2.65
2019-02-04T05:41:42.869Z,2.65
2019-02-04T05:42:07.165Z,2.65
2019-02-04T05:42:34.629Z,2.65
2019-02-04T05:43:00.392Z,2.69
2019-02-04T05:43:26.517Z,2.68
2019-02-04T05:43:52.916Z,2.67
2019-02-04T05:44:19.029Z,2.68
2019-02-04T05:44:45.156Z,2.56
2019-02-04T05:45:11.875Z,2.54
2019-02-04T05:45:38.003Z,2.65
2019-02-04T05:46:04.115Z,2.54
2019-02-04T05:46:30.370Z,2.67
2019-02-04T05:46:57.391Z,2.67
2019-02-04T05:47:24.041Z,2.68
2019-02-04T05:47:50.156Z,2.65
2019-02-04T05:48:16.284Z,2.68
2019-02-04T05:48:48.952Z,2.65
2019-02-04T05:49:10.530Z,2.67
2019-02-04T05:49:36.962Z,2.64
2019-02-04T05:50:03.077Z,2.64
2019-02-04T05:50:29.176Z,2.64